sensor_id;sensor_type;location;lat;lon;timestamp;P1;durP1;ratioP1;P2;durP2;ratioP2
72791;SDS011;60907;53.268;8.764;2023-06-05T00:01:47;3.78;;;2.13;;
72791;SDS011;60907;53.268;8.764;2023-06-05T00:04:13;4.60;;;2.40;;
72791;SDS011;60907;53.268;8.764;2023-06-05T00:06:40;4.93;;;3.17;;
72791;SDS011;60907;53.268;8.764;2023-06-05T00:09:05;6.18;;;3.03;;
72791;SDS011;60907;53.268;8.764;2023-06-05T00:11:31;4.47;;;2.50;;
72791;SDS011;60907;53.268;8.764;2023-06-05T00:13:57;4.10;;;2.20;;
72791;SDS011;60907;53.268;8.764;2023-06-05T00:16:22;4.03;;;2.13;;
72791;SDS011;60907;53.268;8.764;2023-06-05T00:18:48;4.88;;;2.47;;
72791;SDS011;60907;53.268;8.764;2023-06-05T00:21:13;6.13;;;2.75;;
72791;SDS011;60907;53.268;8.764;2023-06-05T00:23:40;4.35;;;2.15;;
72791;SDS011;60907;53.268;8.764;2023-06-05T00:26:06;8.20;;;3.05;;
72791;SDS011;60907;53.268;8.764;2023-06-05T00:28:31;4.35;;;2.63;;
72791;SDS011;60907;53.268;8.764;2023-06-05T00:30:57;5.53;;;2.65;;
72791;SDS011;60907;53.268;8.764;2023-06-05T00:33:22;4.82;;;2.22;;
72791;SDS011;60907;53.268;8.764;2023-06-05T00:35:48;4.95;;;2.58;;
72791;SDS011;60907;53.268;8.764;2023-06-05T00:38:13;6.47;;;2.70;;
72791;SDS011;60907;53.268;8.764;2023-06-05T00:40:38;5.43;;;2.45;;
72791;SDS011;60907;53.268;8.764;2023-06-05T00:43:04;7.13;;;3.15;;
72791;SDS011;60907;53.268;8.764;2023-06-05T00:45:31;6.57;;;2.85;;
72791;SDS011;60907;53.268;8.764;2023-06-05T00:47:56;9.15;;;3.28;;
72791;SDS011;60907;53.268;8.764;2023-06-05T00:50:22;4.07;;;2.60;;
72791;SDS011;60907;53.268;8.764;2023-06-05T00:52:48;6.63;;;3.10;;
72791;SDS011;60907;53.268;8.764;2023-06-05T00:55:14;8.15;;;3.65;;
72791;SDS011;60907;53.268;8.764;2023-06-05T00:57:39;7.28;;;3.13;;
72791;SDS011;60907;53.268;8.764;2023-06-05T01:00:06;9.05;;;2.95;;
72791;SDS011;60907;53.268;8.764;2023-06-05T01:02:34;4.30;;;2.70;;
72791;SDS011;60907;53.268;8.764;2023-06-05T01:05:02;5.93;;;2.80;;
72791;SDS011;60907;53.268;8.764;2023-06-05T01:07:29;5.32;;;3.30;;
72791;SDS011;60907;53.268;8.764;2023-06-05T01:09:59;6.68;;;2.83;;
72791;SDS011;60907;53.268;8.764;2023-06-05T01:12:42;4.90;;;2.50;;
72791;SDS011;60907;53.268;8.764;2023-06-05T01:15:11;6.05;;;3.25;;
72791;SDS011;60907;53.268;8.764;2023-06-05T01:17:37;5.88;;;2.63;;
72791;SDS011;60907;53.268;8.764;2023-06-05T01:20:03;5.85;;;3.17;;
72791;SDS011;60907;53.268;8.764;2023-06-05T01:22:33;6.10;;;2.72;;
72791;SDS011;60907;53.268;8.764;2023-06-05T01:25:02;6.25;;;2.85;;
72791;SDS011;60907;53.268;8.764;2023-06-05T01:27:32;6.70;;;3.03;;
72791;SDS011;60907;53.268;8.764;2023-06-05T01:35:27;6.72;;;3.22;;
72791;SDS011;60907;53.268;8.764;2023-06-05T01:37:54;8.65;;;3.47;;
72791;SDS011;60907;53.268;8.764;2023-06-05T01:40:20;4.38;;;2.70;;
72791;SDS011;60907;53.268;8.764;2023-06-05T01:42:47;9.35;;;2.92;;
72791;SDS011;60907;53.268;8.764;2023-06-05T01:45:14;4.93;;;2.58;;
72791;SDS011;60907;53.268;8.764;2023-06-05T01:47:43;8.35;;;3.67;;
72791;SDS011;60907;53.268;8.764;2023-06-05T01:50:10;6.47;;;3.30;;
72791;SDS011;60907;53.268;8.764;2023-06-05T01:52:39;7.55;;;3.53;;
72791;SDS011;60907;53.268;8.764;2023-06-05T01:55:06;4.97;;;2.67;;
72791;SDS011;60907;53.268;8.764;2023-06-05T01:57:39;4.97;;;3.35;;
72791;SDS011;60907;53.268;8.764;2023-06-05T02:00:05;7.88;;;2.72;;
72791;SDS011;60907;53.268;8.764;2023-06-05T02:02:33;7.03;;;2.80;;
72791;SDS011;60907;53.268;8.764;2023-06-05T02:04:59;7.15;;;3.13;;
72791;SDS011;60907;53.268;8.764;2023-06-05T02:07:24;8.95;;;3.45;;
72791;SDS011;60907;53.268;8.764;2023-06-05T02:09:50;6.03;;;3.70;;
72791;SDS011;60907;53.268;8.764;2023-06-05T02:12:15;9.27;;;3.23;;
72791;SDS011;60907;53.268;8.764;2023-06-05T02:14:41;7.38;;;3.25;;
72791;SDS011;60907;53.268;8.764;2023-06-05T02:17:09;6.35;;;2.78;;
72791;SDS011;60907;53.268;8.764;2023-06-05T02:19:38;8.18;;;2.63;;
72791;SDS011;60907;53.268;8.764;2023-06-05T02:22:06;7.18;;;2.83;;
72791;SDS011;60907;53.268;8.764;2023-06-05T02:24:32;7.10;;;2.58;;
72791;SDS011;60907;53.268;8.764;2023-06-05T02:26:58;9.25;;;3.33;;
72791;SDS011;60907;53.268;8.764;2023-06-05T02:29:23;6.18;;;3.00;;
72791;SDS011;60907;53.268;8.764;2023-06-05T02:31:49;5.47;;;3.20;;
72791;SDS011;60907;53.268;8.764;2023-06-05T02:34:15;6.65;;;3.03;;
72791;SDS011;60907;53.268;8.764;2023-06-05T02:36:41;7.03;;;3.17;;
72791;SDS011;60907;53.268;8.764;2023-06-05T02:39:10;7.25;;;3.20;;
72791;SDS011;60907;53.268;8.764;2023-06-05T02:41:36;5.72;;;2.75;;
72791;SDS011;60907;53.268;8.764;2023-06-05T02:44:01;7.20;;;3.38;;
72791;SDS011;60907;53.268;8.764;2023-06-05T02:46:26;6.60;;;3.13;;
72791;SDS011;60907;53.268;8.764;2023-06-05T02:48:52;6.05;;;3.20;;
72791;SDS011;60907;53.268;8.764;2023-06-05T02:51:17;7.72;;;3.53;;
72791;SDS011;60907;53.268;8.764;2023-06-05T02:53:43;7.88;;;3.47;;
72791;SDS011;60907;53.268;8.764;2023-06-05T02:56:08;6.90;;;3.57;;
72791;SDS011;60907;53.268;8.764;2023-06-05T02:58:33;7.67;;;2.93;;
72791;SDS011;60907;53.268;8.764;2023-06-05T03:01:02;5.63;;;3.20;;
72791;SDS011;60907;53.268;8.764;2023-06-05T03:03:31;6.97;;;2.75;;
72791;SDS011;60907;53.268;8.764;2023-06-05T03:05:57;5.15;;;2.70;;
72791;SDS011;60907;53.268;8.764;2023-06-05T03:08:29;5.93;;;2.60;;
72791;SDS011;60907;53.268;8.764;2023-06-05T03:10:55;7.55;;;3.67;;
72791;SDS011;60907;53.268;8.764;2023-06-05T03:13:21;8.65;;;2.90;;
72791;SDS011;60907;53.268;8.764;2023-06-05T03:15:46;6.50;;;2.95;;
72791;SDS011;60907;53.268;8.764;2023-06-05T03:18:12;5.73;;;2.50;;
72791;SDS011;60907;53.268;8.764;2023-06-05T03:20:37;7.20;;;3.42;;
72791;SDS011;60907;53.268;8.764;2023-06-05T03:23:03;5.65;;;3.03;;
72791;SDS011;60907;53.268;8.764;2023-06-05T03:25:28;6.95;;;3.13;;
72791;SDS011;60907;53.268;8.764;2023-06-05T03:31:16;7.45;;;3.42;;
72791;SDS011;60907;53.268;8.764;2023-06-05T03:33:41;6.72;;;3.42;;
72791;SDS011;60907;53.268;8.764;2023-06-05T03:36:07;6.93;;;3.28;;
72791;SDS011;60907;53.268;8.764;2023-06-05T03:38:33;6.13;;;3.20;;
72791;SDS011;60907;53.268;8.764;2023-06-05T03:40:58;6.32;;;2.92;;
72791;SDS011;60907;53.268;8.764;2023-06-05T03:43:24;8.13;;;3.95;;
72791;SDS011;60907;53.268;8.764;2023-06-05T03:45:51;7.32;;;3.58;;
72791;SDS011;60907;53.268;8.764;2023-06-05T03:48:17;8.45;;;3.60;;
72791;SDS011;60907;53.268;8.764;2023-06-05T03:50:45;8.25;;;3.30;;
72791;SDS011;60907;53.268;8.764;2023-06-05T03:53:11;9.00;;;3.45;;
72791;SDS011;60907;53.268;8.764;2023-06-05T03:58:15;8.85;;;3.65;;
72791;SDS011;60907;53.268;8.764;2023-06-05T04:00:42;6.47;;;3.17;;
72791;SDS011;60907;53.268;8.764;2023-06-05T04:03:09;7.65;;;3.70;;
72791;SDS011;60907;53.268;8.764;2023-06-05T04:05:35;8.15;;;3.90;;
72791;SDS011;60907;53.268;8.764;2023-06-05T04:08:01;6.32;;;3.20;;
72791;SDS011;60907;53.268;8.764;2023-06-05T04:10:28;13.93;;;4.53;;
72791;SDS011;60907;53.268;8.764;2023-06-05T04:12:53;9.48;;;3.92;;
72791;SDS011;60907;53.268;8.764;2023-06-05T04:15:18;8.52;;;4.03;;
72791;SDS011;60907;53.268;8.764;2023-06-05T04:17:44;8.47;;;3.70;;
72791;SDS011;60907;53.268;8.764;2023-06-05T04:20:09;9.05;;;4.03;;
72791;SDS011;60907;53.268;8.764;2023-06-05T04:22:35;9.02;;;3.53;;
72791;SDS011;60907;53.268;8.764;2023-06-05T04:25:01;9.88;;;4.07;;
72791;SDS011;60907;53.268;8.764;2023-06-05T04:27:26;8.85;;;4.35;;
72791;SDS011;60907;53.268;8.764;2023-06-05T04:29:53;8.68;;;4.25;;
72791;SDS011;60907;53.268;8.764;2023-06-05T04:32:19;12.95;;;3.65;;
72791;SDS011;60907;53.268;8.764;2023-06-05T04:34:44;8.77;;;3.40;;
72791;SDS011;60907;53.268;8.764;2023-06-05T04:37:10;8.48;;;3.95;;
72791;SDS011;60907;53.268;8.764;2023-06-05T04:39:35;9.57;;;4.03;;
72791;SDS011;60907;53.268;8.764;2023-06-05T04:42:01;9.23;;;3.30;;
72791;SDS011;60907;53.268;8.764;2023-06-05T04:44:26;7.40;;;3.90;;
72791;SDS011;60907;53.268;8.764;2023-06-05T04:46:52;11.07;;;4.10;;
72791;SDS011;60907;53.268;8.764;2023-06-05T04:49:18;7.30;;;3.60;;
72791;SDS011;60907;53.268;8.764;2023-06-05T04:51:44;6.60;;;3.42;;
72791;SDS011;60907;53.268;8.764;2023-06-05T04:54:09;8.35;;;3.80;;
72791;SDS011;60907;53.268;8.764;2023-06-05T04:56:35;9.07;;;3.78;;
72791;SDS011;60907;53.268;8.764;2023-06-05T04:59:02;8.70;;;3.90;;
72791;SDS011;60907;53.268;8.764;2023-06-05T05:01:28;9.30;;;3.40;;
72791;SDS011;60907;53.268;8.764;2023-06-05T05:03:53;9.82;;;3.80;;
72791;SDS011;60907;53.268;8.764;2023-06-05T05:06:19;8.73;;;4.15;;
72791;SDS011;60907;53.268;8.764;2023-06-05T05:08:46;10.65;;;3.80;;
72791;SDS011;60907;53.268;8.764;2023-06-05T05:11:14;7.97;;;3.88;;
72791;SDS011;60907;53.268;8.764;2023-06-05T05:13:40;10.38;;;3.67;;
72791;SDS011;60907;53.268;8.764;2023-06-05T05:16:06;7.97;;;3.40;;
72791;SDS011;60907;53.268;8.764;2023-06-05T05:18:35;8.73;;;3.35;;
72791;SDS011;60907;53.268;8.764;2023-06-05T05:23:30;7.78;;;3.85;;
72791;SDS011;60907;53.268;8.764;2023-06-05T05:25:55;6.93;;;3.40;;
72791;SDS011;60907;53.268;8.764;2023-06-05T05:28:21;8.77;;;3.40;;
72791;SDS011;60907;53.268;8.764;2023-06-05T05:30:46;10.30;;;3.93;;
72791;SDS011;60907;53.268;8.764;2023-06-05T05:33:12;8.82;;;3.58;;
72791;SDS011;60907;53.268;8.764;2023-06-05T05:35:37;5.60;;;3.00;;
72791;SDS011;60907;53.268;8.764;2023-06-05T05:38:02;9.67;;;3.60;;
72791;SDS011;60907;53.268;8.764;2023-06-05T05:40:28;8.77;;;3.83;;
72791;SDS011;60907;53.268;8.764;2023-06-05T05:42:53;10.33;;;4.13;;
72791;SDS011;60907;53.268;8.764;2023-06-05T05:45:18;6.95;;;3.47;;
72791;SDS011;60907;53.268;8.764;2023-06-05T05:47:44;7.20;;;3.60;;
72791;SDS011;60907;53.268;8.764;2023-06-05T05:50:10;10.10;;;3.63;;
72791;SDS011;60907;53.268;8.764;2023-06-05T05:52:35;5.85;;;2.95;;
72791;SDS011;60907;53.268;8.764;2023-06-05T05:55:01;6.70;;;3.17;;
72791;SDS011;60907;53.268;8.764;2023-06-05T05:57:28;7.13;;;3.40;;
72791;SDS011;60907;53.268;8.764;2023-06-05T05:59:54;7.22;;;2.90;;
72791;SDS011;60907;53.268;8.764;2023-06-05T06:02:20;7.95;;;3.60;;
72791;SDS011;60907;53.268;8.764;2023-06-05T06:04:46;9.20;;;3.40;;
72791;SDS011;60907;53.268;8.764;2023-06-05T06:07:12;9.38;;;3.80;;
72791;SDS011;60907;53.268;8.764;2023-06-05T06:09:38;5.40;;;2.55;;
72791;SDS011;60907;53.268;8.764;2023-06-05T06:12:04;9.10;;;3.50;;
72791;SDS011;60907;53.268;8.764;2023-06-05T06:14:34;6.72;;;3.13;;
72791;SDS011;60907;53.268;8.764;2023-06-05T06:17:00;6.65;;;2.83;;
72791;SDS011;60907;53.268;8.764;2023-06-05T06:19:26;9.18;;;3.22;;
72791;SDS011;60907;53.268;8.764;2023-06-05T06:21:53;6.70;;;3.20;;
72791;SDS011;60907;53.268;8.764;2023-06-05T06:24:19;5.13;;;2.78;;
72791;SDS011;60907;53.268;8.764;2023-06-05T06:26:47;6.35;;;3.28;;
72791;SDS011;60907;53.268;8.764;2023-06-05T06:29:23;7.70;;;2.90;;
72791;SDS011;60907;53.268;8.764;2023-06-05T06:31:52;9.30;;;3.15;;
72791;SDS011;60907;53.268;8.764;2023-06-05T06:34:18;8.50;;;3.42;;
72791;SDS011;60907;53.268;8.764;2023-06-05T06:36:43;5.78;;;3.08;;
72791;SDS011;60907;53.268;8.764;2023-06-05T06:39:11;7.13;;;2.45;;
72791;SDS011;60907;53.268;8.764;2023-06-05T06:41:37;5.13;;;2.67;;
72791;SDS011;60907;53.268;8.764;2023-06-05T06:44:03;8.88;;;3.47;;
72791;SDS011;60907;53.268;8.764;2023-06-05T06:46:29;6.40;;;3.03;;
72791;SDS011;60907;53.268;8.764;2023-06-05T06:48:55;6.75;;;2.80;;
72791;SDS011;60907;53.268;8.764;2023-06-05T06:51:20;4.85;;;2.55;;
72791;SDS011;60907;53.268;8.764;2023-06-05T06:53:49;5.82;;;2.65;;
72791;SDS011;60907;53.268;8.764;2023-06-05T06:56:16;7.75;;;3.25;;
72791;SDS011;60907;53.268;8.764;2023-06-05T06:58:42;5.50;;;2.72;;
72791;SDS011;60907;53.268;8.764;2023-06-05T07:01:08;7.72;;;3.17;;
72791;SDS011;60907;53.268;8.764;2023-06-05T07:03:34;5.97;;;3.15;;
72791;SDS011;60907;53.268;8.764;2023-06-05T07:06:00;4.25;;;2.25;;
72791;SDS011;60907;53.268;8.764;2023-06-05T07:08:26;8.02;;;2.92;;
72791;SDS011;60907;53.268;8.764;2023-06-05T07:10:52;5.82;;;2.63;;
72791;SDS011;60907;53.268;8.764;2023-06-05T07:13:20;6.72;;;2.95;;
72791;SDS011;60907;53.268;8.764;2023-06-05T07:15:46;5.22;;;2.58;;
72791;SDS011;60907;53.268;8.764;2023-06-05T07:18:12;14.23;;;4.20;;
72791;SDS011;60907;53.268;8.764;2023-06-05T07:20:37;6.78;;;2.50;;
72791;SDS011;60907;53.268;8.764;2023-06-05T07:23:03;5.57;;;2.88;;
72791;SDS011;60907;53.268;8.764;2023-06-05T07:25:28;5.65;;;2.70;;
72791;SDS011;60907;53.268;8.764;2023-06-05T07:27:54;7.97;;;3.13;;
72791;SDS011;60907;53.268;8.764;2023-06-05T07:30:19;5.80;;;2.55;;
72791;SDS011;60907;53.268;8.764;2023-06-05T07:32:45;8.18;;;2.72;;
72791;SDS011;60907;53.268;8.764;2023-06-05T07:35:11;9.48;;;2.58;;
72791;SDS011;60907;53.268;8.764;2023-06-05T07:37:37;9.05;;;3.63;;
72791;SDS011;60907;53.268;8.764;2023-06-05T07:40:03;6.05;;;2.90;;
72791;SDS011;60907;53.268;8.764;2023-06-05T07:42:30;8.70;;;2.78;;
72791;SDS011;60907;53.268;8.764;2023-06-05T07:44:56;7.50;;;2.90;;
72791;SDS011;60907;53.268;8.764;2023-06-05T07:47:21;4.75;;;2.70;;
72791;SDS011;60907;53.268;8.764;2023-06-05T07:49:56;5.68;;;2.70;;
72791;SDS011;60907;53.268;8.764;2023-06-05T07:52:23;5.85;;;2.40;;
72791;SDS011;60907;53.268;8.764;2023-06-05T07:54:49;8.48;;;2.83;;
72791;SDS011;60907;53.268;8.764;2023-06-05T07:57:14;5.65;;;2.90;;
72791;SDS011;60907;53.268;8.764;2023-06-05T07:59:40;7.50;;;2.53;;
72791;SDS011;60907;53.268;8.764;2023-06-05T08:02:05;4.40;;;2.07;;
72791;SDS011;60907;53.268;8.764;2023-06-05T08:04:31;5.68;;;2.40;;
72791;SDS011;60907;53.268;8.764;2023-06-05T08:06:56;5.00;;;2.67;;
72791;SDS011;60907;53.268;8.764;2023-06-05T08:09:21;3.93;;;2.30;;
72791;SDS011;60907;53.268;8.764;2023-06-05T08:11:47;4.75;;;2.63;;
72791;SDS011;60907;53.268;8.764;2023-06-05T08:14:13;4.07;;;2.17;;
72791;SDS011;60907;53.268;8.764;2023-06-05T08:16:38;6.03;;;2.38;;
72791;SDS011;60907;53.268;8.764;2023-06-05T08:19:04;4.97;;;2.60;;
72791;SDS011;60907;53.268;8.764;2023-06-05T08:21:29;5.32;;;2.60;;
72791;SDS011;60907;53.268;8.764;2023-06-05T08:23:55;5.35;;;2.33;;
72791;SDS011;60907;53.268;8.764;2023-06-05T08:26:21;4.70;;;2.40;;
72791;SDS011;60907;53.268;8.764;2023-06-05T08:28:47;4.85;;;2.40;;
72791;SDS011;60907;53.268;8.764;2023-06-05T08:31:13;4.90;;;2.20;;
72791;SDS011;60907;53.268;8.764;2023-06-05T08:33:41;5.87;;;2.30;;
72791;SDS011;60907;53.268;8.764;2023-06-05T08:36:06;4.22;;;2.28;;
72791;SDS011;60907;53.268;8.764;2023-06-05T08:38:32;5.37;;;2.50;;
72791;SDS011;60907;53.268;8.764;2023-06-05T08:41:02;3.63;;;2.25;;
72791;SDS011;60907;53.268;8.764;2023-06-05T08:43:30;3.92;;;2.30;;
72791;SDS011;60907;53.268;8.764;2023-06-05T08:45:56;4.28;;;2.28;;
72791;SDS011;60907;53.268;8.764;2023-06-05T08:48:25;5.15;;;2.13;;
72791;SDS011;60907;53.268;8.764;2023-06-05T08:50:51;5.68;;;2.83;;
72791;SDS011;60907;53.268;8.764;2023-06-05T08:53:17;6.60;;;2.53;;
72791;SDS011;60907;53.268;8.764;2023-06-05T08:55:47;4.57;;;2.22;;
72791;SDS011;60907;53.268;8.764;2023-06-05T08:58:14;6.50;;;2.80;;
72791;SDS011;60907;53.268;8.764;2023-06-05T09:00:40;7.60;;;2.78;;
72791;SDS011;60907;53.268;8.764;2023-06-05T09:03:06;5.80;;;2.58;;
72791;SDS011;60907;53.268;8.764;2023-06-05T09:05:31;5.63;;;2.67;;
72791;SDS011;60907;53.268;8.764;2023-06-05T09:07:57;5.93;;;2.55;;
72791;SDS011;60907;53.268;8.764;2023-06-05T09:10:27;4.97;;;2.05;;
72791;SDS011;60907;53.268;8.764;2023-06-05T09:12:54;4.18;;;1.98;;
72791;SDS011;60907;53.268;8.764;2023-06-05T09:15:20;5.00;;;2.25;;
72791;SDS011;60907;53.268;8.764;2023-06-05T09:20:33;8.68;;;2.67;;
72791;SDS011;60907;53.268;8.764;2023-06-05T09:23:00;6.28;;;2.53;;
72791;SDS011;60907;53.268;8.764;2023-06-05T09:25:46;5.55;;;2.35;;
72791;SDS011;60907;53.268;8.764;2023-06-05T09:28:16;6.50;;;2.33;;
72791;SDS011;60907;53.268;8.764;2023-06-05T09:30:54;6.57;;;2.63;;
72791;SDS011;60907;53.268;8.764;2023-06-05T09:33:22;7.00;;;2.40;;
72791;SDS011;60907;53.268;8.764;2023-06-05T09:36:00;4.38;;;2.28;;
72791;SDS011;60907;53.268;8.764;2023-06-05T09:38:28;5.90;;;2.20;;
72791;SDS011;60907;53.268;8.764;2023-06-05T09:41:00;4.00;;;2.42;;
72791;SDS011;60907;53.268;8.764;2023-06-05T09:43:26;4.82;;;1.92;;
72791;SDS011;60907;53.268;8.764;2023-06-05T09:45:52;5.00;;;2.47;;
72791;SDS011;60907;53.268;8.764;2023-06-05T09:48:17;5.40;;;2.10;;
72791;SDS011;60907;53.268;8.764;2023-06-05T09:50:42;4.28;;;2.72;;
72791;SDS011;60907;53.268;8.764;2023-06-05T09:53:08;4.43;;;2.55;;
72791;SDS011;60907;53.268;8.764;2023-06-05T09:55:34;5.78;;;2.00;;
72791;SDS011;60907;53.268;8.764;2023-06-05T09:58:01;4.47;;;1.92;;
72791;SDS011;60907;53.268;8.764;2023-06-05T10:00:35;5.68;;;2.45;;
72791;SDS011;60907;53.268;8.764;2023-06-05T10:03:03;4.90;;;2.10;;
72791;SDS011;60907;53.268;8.764;2023-06-05T10:05:32;2.35;;;1.73;;
72791;SDS011;60907;53.268;8.764;2023-06-05T10:07:59;3.17;;;1.90;;
72791;SDS011;60907;53.268;8.764;2023-06-05T10:10:25;6.88;;;2.80;;
72791;SDS011;60907;53.268;8.764;2023-06-05T10:12:51;5.43;;;2.58;;
72791;SDS011;60907;53.268;8.764;2023-06-05T10:15:21;3.17;;;1.58;;
72791;SDS011;60907;53.268;8.764;2023-06-05T10:17:47;5.47;;;2.83;;
72791;SDS011;60907;53.268;8.764;2023-06-05T10:20:13;3.53;;;2.00;;
72791;SDS011;60907;53.268;8.764;2023-06-05T10:22:40;5.57;;;2.45;;
72791;SDS011;60907;53.268;8.764;2023-06-05T10:25:06;5.82;;;2.28;;
72791;SDS011;60907;53.268;8.764;2023-06-05T10:33:21;2.50;;;1.92;;
72791;SDS011;60907;53.268;8.764;2023-06-05T10:35:53;4.70;;;1.75;;
72791;SDS011;60907;53.268;8.764;2023-06-05T10:38:28;4.35;;;1.88;;
72791;SDS011;60907;53.268;8.764;2023-06-05T10:40:58;4.97;;;2.15;;
72791;SDS011;60907;53.268;8.764;2023-06-05T10:46:10;5.75;;;2.20;;
72791;SDS011;60907;53.268;8.764;2023-06-05T10:59:17;4.70;;;1.80;;
72791;SDS011;60907;53.268;8.764;2023-06-05T11:02:21;4.78;;;1.77;;
72791;SDS011;60907;53.268;8.764;2023-06-05T11:07:24;4.85;;;2.03;;
72791;SDS011;60907;53.268;8.764;2023-06-05T11:17:51;4.85;;;2.22;;
72791;SDS011;60907;53.268;8.764;2023-06-05T11:27:49;5.07;;;2.20;;
72791;SDS011;60907;53.268;8.764;2023-06-05T11:30:22;4.47;;;2.13;;
72791;SDS011;60907;53.268;8.764;2023-06-05T11:32:50;4.43;;;2.22;;
72791;SDS011;60907;53.268;8.764;2023-06-05T11:35:20;1.73;;;1.48;;
72791;SDS011;60907;53.268;8.764;2023-06-05T11:37:46;6.85;;;1.98;;
72791;SDS011;60907;53.268;8.764;2023-06-05T11:40:18;3.65;;;1.88;;
72791;SDS011;60907;53.268;8.764;2023-06-05T11:42:49;5.30;;;1.73;;
72791;SDS011;60907;53.268;8.764;2023-06-05T11:45:14;4.05;;;2.08;;
72791;SDS011;60907;53.268;8.764;2023-06-05T11:47:40;5.25;;;1.80;;
72791;SDS011;60907;53.268;8.764;2023-06-05T11:50:09;4.85;;;2.00;;
72791;SDS011;60907;53.268;8.764;2023-06-05T11:52:36;6.78;;;1.88;;
72791;SDS011;60907;53.268;8.764;2023-06-05T11:57:46;3.65;;;2.03;;
72791;SDS011;60907;53.268;8.764;2023-06-05T12:00:12;3.50;;;1.67;;
72791;SDS011;60907;53.268;8.764;2023-06-05T12:02:39;7.68;;;2.15;;
72791;SDS011;60907;53.268;8.764;2023-06-05T12:05:05;8.52;;;1.90;;
72791;SDS011;60907;53.268;8.764;2023-06-05T12:07:32;4.10;;;1.67;;
72791;SDS011;60907;53.268;8.764;2023-06-05T12:10:01;2.15;;;1.52;;
72791;SDS011;60907;53.268;8.764;2023-06-05T12:12:31;6.32;;;1.83;;
72791;SDS011;60907;53.268;8.764;2023-06-05T12:15:12;3.95;;;1.73;;
72791;SDS011;60907;53.268;8.764;2023-06-05T12:17:38;3.35;;;1.38;;
72791;SDS011;60907;53.268;8.764;2023-06-05T12:20:04;4.68;;;2.40;;
72791;SDS011;60907;53.268;8.764;2023-06-05T12:22:33;3.72;;;1.70;;
72791;SDS011;60907;53.268;8.764;2023-06-05T12:25:14;3.45;;;2.00;;
72791;SDS011;60907;53.268;8.764;2023-06-05T12:27:40;4.97;;;1.75;;
72791;SDS011;60907;53.268;8.764;2023-06-05T12:30:06;3.00;;;1.75;;
72791;SDS011;60907;53.268;8.764;2023-06-05T12:32:32;2.28;;;1.45;;
72791;SDS011;60907;53.268;8.764;2023-06-05T12:34:58;2.53;;;1.75;;
72791;SDS011;60907;53.268;8.764;2023-06-05T12:37:27;3.13;;;1.60;;
72791;SDS011;60907;53.268;8.764;2023-06-05T12:40:00;5.20;;;2.10;;
72791;SDS011;60907;53.268;8.764;2023-06-05T12:42:27;3.33;;;1.58;;
72791;SDS011;60907;53.268;8.764;2023-06-05T12:44:53;2.60;;;1.73;;
72791;SDS011;60907;53.268;8.764;2023-06-05T12:47:19;3.58;;;1.95;;
72791;SDS011;60907;53.268;8.764;2023-06-05T12:49:44;5.53;;;2.53;;
72791;SDS011;60907;53.268;8.764;2023-06-05T12:52:10;4.05;;;1.73;;
72791;SDS011;60907;53.268;8.764;2023-06-05T12:54:36;5.07;;;2.22;;
72791;SDS011;60907;53.268;8.764;2023-06-05T12:57:02;4.22;;;2.10;;
72791;SDS011;60907;53.268;8.764;2023-06-05T12:59:27;4.20;;;1.80;;
72791;SDS011;60907;53.268;8.764;2023-06-05T13:01:53;3.70;;;2.00;;
72791;SDS011;60907;53.268;8.764;2023-06-05T13:04:18;3.03;;;1.48;;
72791;SDS011;60907;53.268;8.764;2023-06-05T13:06:44;3.55;;;2.20;;
72791;SDS011;60907;53.268;8.764;2023-06-05T13:09:09;7.50;;;2.13;;
72791;SDS011;60907;53.268;8.764;2023-06-05T13:11:35;3.57;;;2.27;;
72791;SDS011;60907;53.268;8.764;2023-06-05T13:14:00;4.10;;;2.33;;
72791;SDS011;60907;53.268;8.764;2023-06-05T13:16:26;3.83;;;2.30;;
72791;SDS011;60907;53.268;8.764;2023-06-05T13:18:51;5.20;;;2.35;;
72791;SDS011;60907;53.268;8.764;2023-06-05T13:21:17;4.00;;;2.33;;
72791;SDS011;60907;53.268;8.764;2023-06-05T13:23:42;5.93;;;2.03;;
72791;SDS011;60907;53.268;8.764;2023-06-05T13:26:08;5.03;;;2.30;;
72791;SDS011;60907;53.268;8.764;2023-06-05T13:28:33;3.75;;;2.15;;
72791;SDS011;60907;53.268;8.764;2023-06-05T13:30:59;3.80;;;1.77;;
72791;SDS011;60907;53.268;8.764;2023-06-05T13:33:26;5.13;;;2.40;;
72791;SDS011;60907;53.268;8.764;2023-06-05T13:35:52;4.90;;;2.30;;
72791;SDS011;60907;53.268;8.764;2023-06-05T13:38:18;5.60;;;2.33;;
72791;SDS011;60907;53.268;8.764;2023-06-05T13:40:44;5.32;;;2.08;;
72791;SDS011;60907;53.268;8.764;2023-06-05T13:43:13;5.00;;;2.20;;
72791;SDS011;60907;53.268;8.764;2023-06-05T13:45:39;4.53;;;2.33;;
72791;SDS011;60907;53.268;8.764;2023-06-05T13:48:05;4.30;;;2.30;;
72791;SDS011;60907;53.268;8.764;2023-06-05T13:50:30;4.13;;;1.98;;
72791;SDS011;60907;53.268;8.764;2023-06-05T13:52:56;10.23;;;2.70;;
72791;SDS011;60907;53.268;8.764;2023-06-05T13:55:21;4.90;;;2.42;;
72791;SDS011;60907;53.268;8.764;2023-06-05T13:57:47;6.05;;;2.30;;
72791;SDS011;60907;53.268;8.764;2023-06-05T14:00:12;3.72;;;2.15;;
72791;SDS011;60907;53.268;8.764;2023-06-05T14:02:40;4.15;;;2.67;;
72791;SDS011;60907;53.268;8.764;2023-06-05T14:05:06;5.65;;;2.15;;
72791;SDS011;60907;53.268;8.764;2023-06-05T14:07:33;4.85;;;2.03;;
72791;SDS011;60907;53.268;8.764;2023-06-05T14:09:58;2.67;;;2.00;;
72791;SDS011;60907;53.268;8.764;2023-06-05T14:12:24;5.50;;;2.20;;
72791;SDS011;60907;53.268;8.764;2023-06-05T14:14:50;4.78;;;2.20;;
72791;SDS011;60907;53.268;8.764;2023-06-05T14:17:15;6.32;;;2.50;;
72791;SDS011;60907;53.268;8.764;2023-06-05T14:19:41;4.70;;;2.40;;
72791;SDS011;60907;53.268;8.764;2023-06-05T14:22:06;6.90;;;2.33;;
72791;SDS011;60907;53.268;8.764;2023-06-05T14:24:33;3.88;;;1.88;;
72791;SDS011;60907;53.268;8.764;2023-06-05T14:26:58;4.18;;;1.98;;
72791;SDS011;60907;53.268;8.764;2023-06-05T14:29:24;5.15;;;2.28;;
72791;SDS011;60907;53.268;8.764;2023-06-05T14:31:49;5.13;;;2.55;;
72791;SDS011;60907;53.268;8.764;2023-06-05T14:34:15;5.55;;;2.25;;
72791;SDS011;60907;53.268;8.764;2023-06-05T14:36:41;3.65;;;2.30;;
72791;SDS011;60907;53.268;8.764;2023-06-05T14:39:07;5.43;;;2.28;;
72791;SDS011;60907;53.268;8.764;2023-06-05T14:41:32;3.45;;;2.15;;
72791;SDS011;60907;53.268;8.764;2023-06-05T14:43:58;4.53;;;2.38;;
72791;SDS011;60907;53.268;8.764;2023-06-05T14:46:23;5.68;;;2.25;;
72791;SDS011;60907;53.268;8.764;2023-06-05T14:48:49;5.60;;;2.60;;
72791;SDS011;60907;53.268;8.764;2023-06-05T14:51:15;4.13;;;2.22;;
72791;SDS011;60907;53.268;8.764;2023-06-05T14:53:41;6.65;;;2.47;;
72791;SDS011;60907;53.268;8.764;2023-06-05T14:56:07;4.13;;;2.60;;
72791;SDS011;60907;53.268;8.764;2023-06-05T14:58:32;7.85;;;1.90;;
72791;SDS011;60907;53.268;8.764;2023-06-05T15:00:58;5.53;;;2.33;;
72791;SDS011;60907;53.268;8.764;2023-06-05T15:03:23;4.22;;;2.33;;
72791;SDS011;60907;53.268;8.764;2023-06-05T15:05:49;4.63;;;2.13;;
72791;SDS011;60907;53.268;8.764;2023-06-05T15:08:14;3.17;;;1.85;;
72791;SDS011;60907;53.268;8.764;2023-06-05T15:10:40;4.13;;;2.03;;
72791;SDS011;60907;53.268;8.764;2023-06-05T15:13:05;6.30;;;2.45;;
72791;SDS011;60907;53.268;8.764;2023-06-05T15:15:31;3.78;;;2.20;;
72791;SDS011;60907;53.268;8.764;2023-06-05T15:17:56;3.42;;;2.63;;
72791;SDS011;60907;53.268;8.764;2023-06-05T15:20:22;4.90;;;2.67;;
72791;SDS011;60907;53.268;8.764;2023-06-05T15:22:48;4.97;;;2.17;;
72791;SDS011;60907;53.268;8.764;2023-06-05T15:25:13;2.78;;;2.03;;
72791;SDS011;60907;53.268;8.764;2023-06-05T15:27:39;3.28;;;2.00;;
72791;SDS011;60907;53.268;8.764;2023-06-05T15:30:07;2.75;;;1.90;;
72791;SDS011;60907;53.268;8.764;2023-06-05T15:32:33;3.45;;;2.13;;
72791;SDS011;60907;53.268;8.764;2023-06-05T15:34:59;4.10;;;1.70;;
72791;SDS011;60907;53.268;8.764;2023-06-05T15:37:24;3.72;;;2.10;;
72791;SDS011;60907;53.268;8.764;2023-06-05T15:39:50;5.07;;;2.42;;
72791;SDS011;60907;53.268;8.764;2023-06-05T15:42:33;6.18;;;2.80;;